createdAt,value
2018-07-30T00:01:06.088Z,54.30
2018-07-30T00:03:34.208Z,54.60
2018-07-30T00:06:02.320Z,54.70
2018-07-30T00:08:30.459Z,54.80
2018-07-30T00:10:58.568Z,55.10
2018-07-30T00:13:26.662Z,55.50
2018-07-30T00:15:54.787Z,55.50
2018-07-30T00:18:22.895Z,55.50
2018-07-30T00:20:51.011Z,55.60
2018-07-30T00:23:19.157Z,55.70
2018-07-30T00:25:47.255Z,56.00
2018-07-30T00:28:15.430Z,56.30
2018-07-30T00:30:43.536Z,56.60
2018-07-30T00:33:11.656Z,56.90
2018-07-30T00:35:39.742Z,57.10
2018-07-30T00:38:07.989Z,57.60
2018-07-30T00:40:36.087Z,58.00
2018-07-30T00:43:04.173Z,58.10
2018-07-30T00:45:32.294Z,57.40
2018-07-30T00:48:00.406Z,57.50
2018-07-30T00:50:28.511Z,57.60
2018-07-30T00:52:56.647Z,57.70
2018-07-30T00:55:24.781Z,58.60
2018-07-30T00:57:52.868Z,58.50
2018-07-30T01:00:21.002Z,58.60
2018-07-30T01:02:49.174Z,58.60
2018-07-30T01:05:17.283Z,58.60
2018-07-30T01:07:45.502Z,58.90
2018-07-30T01:10:13.515Z,59.00
2018-07-30T01:12:41.771Z,59.80
2018-07-30T01:15:09.974Z,60.80
2018-07-30T01:17:38.084Z,61.60
2018-07-30T01:20:06.395Z,61.40
2018-07-30T01:22:34.533Z,62.00
2018-07-30T01:25:02.825Z,62.30
2018-07-30T01:27:30.965Z,62.80
2018-07-30T01:29:59.064Z,62.20
2018-07-30T01:32:27.206Z,62.30
2018-07-30T01:34:55.307Z,63.70
2018-07-30T01:37:23.427Z,62.90
2018-07-30T01:39:51.560Z,65.20
2018-07-30T01:42:19.671Z,65.60
2018-07-30T01:44:47.843Z,65.90
2018-07-30T01:47:15.980Z,66.50
2018-07-30T01:49:44.128Z,66.60
2018-07-30T01:52:12.253Z,67.50
2018-07-30T01:54:40.396Z,66.60
2018-07-30T01:57:08.496Z,65.90
2018-07-30T01:59:36.599Z,66.60
2018-07-30T02:02:04.711Z,66.20
2018-07-30T02:04:32.792Z,66.80
2018-07-30T02:07:00.895Z,67.20
2018-07-30T02:09:29.020Z,67.10
2018-07-30T02:11:57.136Z,67.70
2018-07-30T02:14:25.262Z,67.80
2018-07-30T02:16:53.442Z,67.50
2018-07-30T02:19:21.567Z,66.90
2018-07-30T02:21:49.679Z,68.10
2018-07-30T02:24:17.841Z,68.10
2018-07-30T02:26:45.979Z,67.90
2018-07-30T02:29:14.103Z,67.70
2018-07-30T02:31:42.271Z,67.90
2018-07-30T02:34:10.533Z,67.90
2018-07-30T02:36:38.651Z,67.50
2018-07-30T02:39:09.553Z,67.20
2018-07-30T02:41:37.821Z,67.10
2018-07-30T02:44:05.932Z,68.90
2018-07-30T02:46:34.084Z,68.90
2018-07-30T02:49:02.249Z,67.90
2018-07-30T02:51:30.528Z,68.20
2018-07-30T02:53:58.940Z,68.70
2018-07-30T02:56:27.175Z,68.20
2018-07-30T02:58:55.271Z,68.70
2018-07-30T03:01:23.407Z,69.30
2018-07-30T03:03:51.529Z,68.80
2018-07-30T03:06:19.651Z,70.10
2018-07-30T03:08:47.782Z,70.50
2018-07-30T03:11:15.904Z,71.00
2018-07-30T03:13:44.441Z,72.10
2018-07-30T03:16:12.611Z,71.80
2018-07-30T03:18:40.715Z,71.50
2018-07-30T03:21:08.979Z,71.50
2018-07-30T03:23:37.121Z,71.00
2018-07-30T03:26:05.240Z,71.40
2018-07-30T03:28:33.347Z,71.70
2018-07-30T03:31:01.476Z,71.40
2018-07-30T03:33:29.600Z,72.00
2018-07-30T03:35:57.727Z,72.00
2018-07-30T03:38:25.820Z,72.40
2018-07-30T03:40:53.976Z,72.90
2018-07-30T03:43:22.075Z,73.10
2018-07-30T03:45:50.182Z,73.70
2018-07-30T03:48:18.304Z,74.10
2018-07-30T03:50:46.447Z,74.50
2018-07-30T03:53:14.544Z,74.60
2018-07-30T03:55:42.656Z,74.20
2018-07-30T03:58:10.800Z,74.30
2018-07-30T04:00:38.963Z,74.90
2018-07-30T04:03:07.096Z,74.60
2018-07-30T04:05:35.203Z,74.50
2018-07-30T04:08:03.356Z,74.90
2018-07-30T04:10:31.464Z,75.30
2018-07-30T04:12:59.582Z,75.60
2018-07-30T04:15:27.760Z,75.40
2018-07-30T04:17:55.847Z,75.30
2018-07-30T04:20:23.938Z,75.10
2018-07-30T04:25:19.960Z,74.80
2018-07-30T04:27:48.068Z,74.70
2018-07-30T04:30:16.186Z,74.60
2018-07-30T04:32:44.319Z,74.30
2018-07-30T04:35:12.443Z,75.30
2018-07-30T04:37:40.544Z,75.00
2018-07-30T04:40:08.683Z,75.10
2018-07-30T04:42:36.783Z,75.30
2018-07-30T04:45:05.108Z,75.30
2018-07-30T04:47:33.317Z,75.10
2018-07-30T04:50:01.430Z,74.60
2018-07-30T04:52:29.583Z,74.50
2018-07-30T04:54:57.695Z,74.80
2018-07-30T04:57:25.789Z,75.50
2018-07-30T04:59:53.916Z,74.80
2018-07-30T05:02:22.240Z,73.80
2018-07-30T05:04:50.365Z,73.60
2018-07-30T05:07:18.463Z,73.10
2018-07-30T05:09:46.617Z,72.60
2018-07-30T05:12:14.848Z,71.80
2018-07-30T05:14:42.983Z,71.70
2018-07-30T05:17:11.130Z,70.60
2018-07-30T05:22:07.291Z,70.80
2018-07-30T05:24:35.466Z,71.30
2018-07-30T05:27:03.590Z,70.50
2018-07-30T05:29:31.717Z,69.50
2018-07-30T05:31:59.861Z,68.90
2018-07-30T05:34:28.014Z,68.70
2018-07-30T05:36:56.403Z,69.00
2018-07-30T05:39:24.544Z,68.50
2018-07-30T06:27:45.320Z,68.30
2018-07-30T06:30:13.633Z,52.50
2018-07-30T06:32:41.740Z,51.40
2018-07-30T06:35:09.992Z,50.50
2018-07-30T06:37:38.112Z,49.90
2018-07-30T06:40:06.453Z,49.50
2018-07-30T06:42:34.603Z,49.30
2018-07-30T06:45:02.680Z,48.80
2018-07-30T06:47:30.792Z,48.80
2018-07-30T06:49:58.903Z,48.60
2018-07-30T06:52:27.020Z,48.40
2018-07-30T06:54:55.264Z,48.60
2018-07-30T06:57:23.371Z,48.40
2018-07-30T06:59:51.504Z,48.00
2018-07-30T07:02:19.631Z,48.00
2018-07-30T07:04:47.768Z,47.70
2018-07-30T07:07:16.876Z,48.60
2018-07-30T07:09:45.693Z,48.60
2018-07-30T07:12:13.804Z,48.80
2018-07-30T07:14:42.083Z,48.60
2018-07-30T07:17:10.671Z,48.20
2018-07-30T07:19:39.172Z,47.70
2018-07-30T07:24:35.220Z,47.10
2018-07-30T07:27:03.365Z,46.70
2018-07-30T07:29:31.484Z,46.10
2018-07-30T07:32:01.203Z,46.20
2018-07-30T07:34:29.490Z,45.70
2018-07-30T07:36:57.567Z,45.80
2018-07-30T07:39:25.699Z,45.00
2018-07-30T07:41:53.869Z,45.00
2018-07-30T07:44:21.997Z,45.50
2018-07-30T07:46:50.103Z,45.20
2018-07-30T07:49:18.216Z,45.90
2018-07-30T07:51:46.307Z,45.10
2018-07-30T07:54:14.426Z,46.20
2018-07-30T07:56:42.518Z,46.20
2018-07-30T07:59:10.607Z,46.00
2018-07-30T08:01:38.694Z,46.10
2018-07-30T08:04:06.766Z,44.50
2018-07-30T08:06:35.044Z,44.30
2018-07-30T08:09:03.175Z,42.50
2018-07-30T08:11:31.255Z,42.30
2018-07-30T08:13:59.331Z,43.60
2018-07-30T08:16:27.535Z,43.80
2018-07-30T08:21:23.504Z,44.00
2018-07-30T08:23:51.729Z,43.80
2018-07-30T08:26:19.839Z,44.10
2018-07-30T08:28:47.939Z,44.20
2018-07-30T08:31:16.062Z,44.70
2018-07-30T08:33:44.233Z,44.90
2018-07-30T08:36:12.370Z,45.50
2018-07-30T08:38:40.468Z,45.00
2018-07-30T08:41:08.592Z,45.10
2018-07-30T08:43:36.929Z,45.70
2018-07-30T08:46:05.036Z,46.40
2018-07-30T08:48:33.300Z,45.80
2018-07-30T08:51:01.535Z,46.50
2018-07-30T08:53:29.696Z,46.10
2018-07-30T08:55:58.070Z,46.00
2018-07-30T08:58:26.176Z,46.30
2018-07-30T09:00:54.520Z,47.20
2018-07-30T09:03:22.608Z,46.20
2018-07-30T09:05:50.820Z,46.80
2018-07-30T09:08:18.933Z,46.60
2018-07-30T09:10:47.045Z,46.20
2018-07-30T09:13:15.168Z,46.30
2018-07-30T09:15:43.336Z,46.00
2018-07-30T09:20:39.587Z,46.80
2018-07-30T09:23:07.680Z,46.60
2018-07-30T09:28:03.763Z,46.70
2018-07-30T09:30:31.917Z,46.60
2018-07-30T09:35:28.017Z,47.00
2018-07-30T09:37:56.195Z,46.20
2018-07-30T09:40:24.351Z,46.30
2018-07-30T09:42:52.734Z,45.00
2018-07-30T09:45:20.855Z,43.60
2018-07-30T09:47:48.968Z,43.30
2018-07-30T09:52:45.208Z,40.60
2018-07-30T09:55:13.315Z,39.20
2018-07-30T09:57:41.419Z,38.50
2018-07-30T10:00:09.851Z,37.90
2018-07-30T10:07:33.819Z,40.00
2018-07-30T10:10:02.012Z,39.10
2018-07-30T10:12:30.088Z,37.90
2018-07-30T10:14:58.226Z,38.60
2018-07-30T10:17:26.319Z,37.50
2018-07-30T10:19:54.424Z,36.90
2018-07-30T10:22:22.599Z,36.00
2018-07-30T10:24:50.713Z,36.60
2018-07-30T10:27:18.838Z,36.10
2018-07-30T10:29:46.990Z,36.10
2018-07-30T10:32:15.100Z,35.30
2018-07-30T10:34:43.253Z,35.70
2018-07-30T10:37:11.371Z,35.50
2018-07-30T10:39:40.496Z,34.30
2018-07-30T10:42:08.655Z,34.70
2018-07-30T10:44:36.773Z,35.10
2018-07-30T10:47:05.062Z,34.20
2018-07-30T10:49:33.179Z,34.10
2018-07-30T10:52:01.277Z,34.60
2018-07-30T10:54:29.392Z,34.70
2018-07-30T10:56:57.489Z,34.80
2018-07-30T10:59:25.712Z,34.50
2018-07-30T11:01:53.851Z,35.80
2018-07-30T11:04:21.960Z,36.10
2018-07-30T11:06:50.084Z,35.60
2018-07-30T11:09:18.184Z,36.00
2018-07-30T11:11:46.330Z,35.70
2018-07-30T11:14:14.535Z,35.20
2018-07-30T11:16:42.696Z,35.70
2018-07-30T11:19:10.828Z,35.40
2018-07-30T11:21:38.966Z,35.10
2018-07-30T11:24:07.137Z,35.60
2018-07-30T11:26:35.275Z,35.40
2018-07-30T11:31:31.292Z,35.40
2018-07-30T11:33:59.499Z,35.50
2018-07-30T11:36:27.608Z,35.60
2018-07-30T11:38:55.714Z,36.20
2018-07-30T11:41:23.865Z,35.20
2018-07-30T11:43:52.201Z,35.80
2018-07-30T11:46:20.330Z,36.90
2018-07-30T11:48:48.527Z,36.70
2018-07-30T11:53:44.583Z,36.40
2018-07-30T11:56:12.775Z,35.40
2018-07-30T11:58:41.009Z,35.40
2018-07-30T12:01:09.271Z,35.40
2018-07-30T12:03:37.264Z,36.10
2018-07-30T12:06:05.388Z,36.10
2018-07-30T12:08:33.527Z,35.90
2018-07-30T12:11:01.673Z,36.60
2018-07-30T12:13:29.822Z,36.30
2018-07-30T12:15:57.920Z,35.60
2018-07-30T12:18:26.036Z,35.80
2018-07-30T12:20:54.321Z,35.90
2018-07-30T12:23:22.427Z,35.60
2018-07-30T12:25:50.566Z,36.00
2018-07-30T12:28:18.712Z,35.30
2018-07-30T12:30:46.881Z,35.50
2018-07-30T12:33:15.058Z,36.00
2018-07-30T12:35:43.188Z,36.00
2018-07-30T12:38:11.316Z,35.70
2018-07-30T12:57:22.624Z,35.90
2018-07-30T12:59:50.965Z,36.00
2018-07-30T13:02:19.165Z,36.50
2018-07-30T13:04:47.525Z,36.20
2018-07-30T13:07:15.587Z,36.30
2018-07-30T13:09:43.670Z,36.50
2018-07-30T13:12:11.736Z,36.40
2018-07-30T13:14:39.814Z,36.70
2018-07-30T13:17:07.882Z,36.60
2018-07-30T13:19:36.005Z,37.40
2018-07-30T13:22:04.186Z,36.70
2018-07-30T13:24:32.322Z,36.80
2018-07-30T13:27:00.455Z,36.10
2018-07-30T13:29:28.543Z,36.40
2018-07-30T13:31:56.707Z,36.40
2018-07-30T13:34:24.823Z,36.90
2018-07-30T13:36:52.941Z,36.50
2018-07-30T13:39:21.083Z,36.20
2018-07-30T13:41:49.219Z,36.40
2018-07-30T13:44:17.351Z,36.80
2018-07-30T13:46:45.460Z,35.80
2018-07-30T13:49:13.587Z,36.40
2018-07-30T13:51:41.732Z,36.00
2018-07-30T13:54:09.956Z,36.20
2018-07-30T13:56:38.016Z,36.00
2018-07-30T13:59:06.144Z,35.80
2018-07-30T14:01:34.244Z,36.30
2018-07-30T14:04:02.327Z,36.50
2018-07-30T14:06:30.555Z,36.30
2018-07-30T14:08:58.611Z,36.10
2018-07-30T14:11:26.727Z,36.90
2018-07-30T14:13:54.848Z,36.30
2018-07-30T14:16:22.912Z,36.30
2018-07-30T14:18:51.004Z,36.50
2018-07-30T14:21:19.044Z,37.00
2018-07-30T14:23:47.128Z,36.30
2018-07-30T14:26:15.216Z,36.40
2018-07-30T14:28:43.324Z,36.80
2018-07-30T14:31:11.404Z,37.00
2018-07-30T14:33:39.487Z,37.20
2018-07-30T14:36:07.593Z,37.30
2018-07-30T14:38:35.671Z,38.00
2018-07-30T14:41:03.741Z,37.60
2018-07-30T14:43:31.836Z,37.80
2018-07-30T14:45:59.945Z,37.70
2018-07-30T14:48:28.024Z,38.40
2018-07-30T14:50:56.155Z,39.00
2018-07-30T14:53:24.230Z,38.90
2018-07-30T14:55:52.338Z,38.80
2018-07-30T14:58:20.431Z,38.70
2018-07-30T15:00:48.573Z,38.00
2018-07-30T15:03:16.756Z,37.60
2018-07-30T15:05:44.838Z,37.30
2018-07-30T15:08:12.955Z,37.00
2018-07-30T15:10:41.231Z,36.40
2018-07-30T15:13:09.376Z,36.10
2018-07-30T15:15:37.503Z,37.00
2018-07-30T15:18:05.724Z,35.80
2018-07-30T15:20:33.887Z,36.40
2018-07-30T15:23:01.999Z,36.40
2018-07-30T15:25:30.104Z,37.20
2018-07-30T15:27:58.223Z,37.00
2018-07-30T15:30:26.355Z,37.30
2018-07-30T15:32:54.483Z,36.90
2018-07-30T15:35:22.583Z,37.00
2018-07-30T15:37:50.691Z,36.70
2018-07-30T15:40:18.839Z,35.90
2018-07-30T15:42:46.975Z,36.20
2018-07-30T15:45:15.043Z,36.20
2018-07-30T15:47:43.159Z,36.10
2018-07-30T15:50:11.271Z,37.20
2018-07-30T15:52:39.395Z,38.70
2018-07-30T15:55:07.581Z,38.70
2018-07-30T15:57:35.691Z,39.10
2018-07-30T16:02:32.684Z,39.60
2018-07-30T16:07:28.935Z,40.60
2018-07-30T16:09:57.044Z,39.90
2018-07-30T16:12:25.163Z,39.30
2018-07-30T16:14:53.292Z,38.00
2018-07-30T16:17:21.396Z,37.00
2018-07-30T16:19:49.527Z,37.20
2018-07-30T16:22:17.651Z,37.80
2018-07-30T16:24:45.907Z,37.40
2018-07-30T16:27:14.035Z,36.70
2018-07-30T16:29:42.144Z,36.30
2018-07-30T16:32:10.294Z,36.20
2018-07-30T16:34:38.399Z,36.70
2018-07-30T16:37:06.625Z,36.80
2018-07-30T16:39:34.731Z,36.00
2018-07-30T16:42:03.016Z,36.30
2018-07-30T16:44:31.147Z,36.80
2018-07-30T16:46:59.268Z,37.30
2018-07-30T16:49:27.347Z,36.10
2018-07-30T16:51:55.461Z,35.50
2018-07-30T16:54:23.577Z,35.70
2018-07-30T16:56:51.672Z,35.70
2018-07-30T16:59:19.792Z,35.40
2018-07-30T17:01:47.902Z,35.40
2018-07-30T17:04:15.999Z,35.30
2018-07-30T17:06:44.331Z,35.60
2018-07-30T17:09:12.795Z,36.10
2018-07-30T17:11:41.226Z,37.10
2018-07-30T17:14:09.317Z,38.60
2018-07-30T17:16:37.418Z,38.60
2018-07-30T17:19:05.895Z,39.50
2018-07-30T17:21:33.975Z,39.00
2018-07-30T17:24:02.181Z,39.20
2018-07-30T17:26:30.376Z,37.70
2018-07-30T17:28:58.457Z,39.50
2018-07-30T17:31:26.551Z,39.10
2018-07-30T17:33:54.636Z,38.40
2018-07-30T17:36:22.733Z,39.70
2018-07-30T17:38:50.808Z,40.10
2018-07-30T17:41:18.912Z,40.60
2018-07-30T17:43:47.024Z,40.40
2018-07-30T17:46:15.142Z,40.30
2018-07-30T17:48:43.287Z,40.70
2018-07-30T17:51:11.432Z,40.80
2018-07-30T17:53:39.548Z,40.90
2018-07-30T17:56:07.644Z,41.00
2018-07-30T17:58:35.751Z,41.30
2018-07-30T18:03:31.787Z,42.00
2018-07-30T18:05:59.939Z,42.40
2018-07-30T18:08:28.079Z,42.90
2018-07-30T18:10:56.219Z,43.20
2018-07-30T18:13:24.347Z,43.10
2018-07-30T18:15:52.531Z,44.00
2018-07-30T18:18:20.635Z,44.50
2018-07-30T18:20:49.044Z,44.00
2018-07-30T18:23:17.222Z,44.40
2018-07-30T18:25:45.350Z,45.30
2018-07-30T18:28:13.605Z,44.50
2018-07-30T18:30:41.695Z,44.70
2018-07-30T18:33:10.062Z,45.00
2018-07-30T18:35:38.404Z,44.90
2018-07-30T18:38:06.531Z,45.00
2018-07-30T18:40:34.629Z,45.30
2018-07-30T18:43:02.734Z,45.70
2018-07-30T18:45:30.839Z,45.80
2018-07-30T18:47:58.930Z,45.80
2018-07-30T18:50:27.006Z,45.80
2018-07-30T18:52:55.098Z,46.20
2018-07-30T18:55:23.229Z,46.40
2018-07-30T18:57:51.351Z,46.60
2018-07-30T19:00:19.472Z,46.60
2018-07-30T19:02:47.553Z,46.70
2018-07-30T19:07:43.586Z,46.50
2018-07-30T19:10:11.875Z,47.10
2018-07-30T19:12:39.968Z,47.10
2018-07-30T19:15:08.147Z,46.90
2018-07-30T19:20:04.571Z,47.10
2018-07-30T19:22:32.887Z,47.30
2018-07-30T19:25:00.999Z,47.70
2018-07-30T19:27:29.123Z,48.10
2018-07-30T19:29:57.200Z,48.20
2018-07-30T19:32:25.355Z,48.30
2018-07-30T19:34:53.604Z,48.50
2018-07-30T19:37:21.798Z,48.60
2018-07-30T19:39:49.852Z,48.70
2018-07-30T19:42:17.968Z,48.80
2018-07-30T19:44:46.119Z,48.70
2018-07-30T19:47:14.135Z,49.00
2018-07-30T19:49:42.291Z,49.40
2018-07-30T19:52:11.681Z,49.50
2018-07-30T19:54:39.774Z,49.70
2018-07-30T19:57:09.469Z,50.00
2018-07-30T19:59:39.183Z,50.10
2018-07-30T20:02:08.217Z,50.50
2018-07-30T20:04:36.315Z,50.80
2018-07-30T20:07:05.063Z,50.50
2018-07-30T20:09:33.883Z,50.60
2018-07-30T20:12:02.627Z,51.40
2018-07-30T20:14:31.102Z,51.20
2018-07-30T20:17:00.051Z,51.40
2018-07-30T20:19:30.090Z,51.70
2018-07-30T20:21:58.379Z,51.80
2018-07-30T20:24:26.591Z,52.10
2018-07-30T20:26:55.487Z,52.30
2018-07-30T20:29:23.911Z,52.10
2018-07-30T20:31:52.195Z,52.10
2018-07-30T20:34:20.855Z,52.20
2018-07-30T20:36:49.462Z,52.40
2018-07-30T20:39:17.546Z,52.60
2018-07-30T20:41:45.635Z,53.10
2018-07-30T20:44:13.749Z,53.00
2018-07-30T20:46:41.848Z,53.10
2018-07-30T20:49:09.971Z,53.30
2018-07-30T20:51:38.082Z,53.50
2018-07-30T20:54:06.179Z,53.50
2018-07-30T20:56:34.293Z,53.60
2018-07-30T20:59:02.398Z,53.60
2018-07-30T21:01:30.678Z,53.70
2018-07-30T21:03:58.775Z,54.20
2018-07-30T21:06:26.987Z,54.30
2018-07-30T21:08:55.129Z,54.30
2018-07-30T21:11:23.237Z,54.30
2018-07-30T21:13:51.347Z,54.50
2018-07-30T21:16:19.415Z,54.70
2018-07-30T21:18:47.562Z,54.80
2018-07-30T21:21:15.707Z,55.10
2018-07-30T21:23:43.767Z,55.20
2018-07-30T21:26:11.899Z,55.40
2018-07-30T21:28:39.974Z,55.30
2018-07-30T21:31:08.079Z,55.30
2018-07-30T21:33:36.301Z,55.20
2018-07-30T21:36:05.470Z,55.20
2018-07-30T21:38:33.572Z,55.20
2018-07-30T21:41:01.710Z,55.60
2018-07-30T21:43:31.447Z,55.50
2018-07-30T21:45:59.563Z,55.60
2018-07-30T21:48:27.831Z,55.60
2018-07-30T21:50:55.907Z,55.50
2018-07-30T21:53:24.015Z,55.30
2018-07-30T21:55:53.306Z,55.60
2018-07-30T21:58:21.402Z,55.90
2018-07-30T22:00:55.419Z,56.50
2018-07-30T22:03:23.672Z,56.40
2018-07-30T22:05:57.433Z,56.50
2018-07-30T22:08:25.871Z,56.70
2018-07-30T22:10:54.016Z,56.70
2018-07-30T22:13:22.166Z,57.10
2018-07-30T22:15:50.292Z,57.20
2018-07-30T22:18:18.835Z,57.90
2018-07-30T22:20:46.955Z,57.70
2018-07-30T22:23:15.103Z,57.70
2018-07-30T22:28:11.130Z,58.00
2018-07-30T22:30:39.263Z,58.10
2018-07-30T22:33:07.343Z,58.40
2018-07-30T22:35:35.455Z,58.50
2018-07-30T22:38:03.575Z,58.70
2018-07-30T22:40:31.655Z,58.60
2018-07-30T22:42:59.797Z,58.20
2018-07-30T22:45:27.873Z,58.50
2018-07-30T22:47:55.999Z,58.70
2018-07-30T22:50:24.145Z,58.80
2018-07-30T22:52:52.223Z,58.80
2018-07-30T22:55:20.339Z,58.90
2018-07-30T22:57:48.454Z,58.50
2018-07-30T23:00:16.595Z,58.60
2018-07-30T23:02:44.803Z,59.00
2018-07-30T23:05:12.943Z,59.00
2018-07-30T23:07:41.088Z,58.50
2018-07-30T23:10:09.195Z,58.40
2018-07-30T23:12:37.331Z,58.60
2018-07-30T23:15:05.726Z,57.50
2018-07-30T23:17:33.848Z,57.00
2018-07-30T23:20:01.951Z,56.60
2018-07-30T23:22:30.099Z,57.00
2018-07-30T23:24:58.227Z,57.40
2018-07-30T23:27:26.321Z,57.60
2018-07-30T23:29:54.426Z,58.00
2018-07-30T23:32:22.604Z,58.10
2018-07-30T23:34:50.765Z,58.40
2018-07-30T23:37:18.982Z,58.70
2018-07-30T23:39:46.951Z,58.80
2018-07-30T23:42:15.078Z,59.80
2018-07-30T23:44:43.187Z,59.60
2018-07-30T23:47:11.277Z,59.80
2018-07-30T23:49:39.363Z,59.50
2018-07-30T23:52:07.488Z,59.30
2018-07-30T23:54:35.659Z,60.00
2018-07-30T23:57:03.839Z,59.60
2018-07-30T23:59:31.951Z,59.40
